Terminal Aerodrome Forecast
Issued by NWS

Home | Current Version | Previous Version | Text Only | Print | Product List | Glossary On
Versions: 1 2 3 4 5 6 7 8 9 10 11 12 13 14 15
361
FTUS43 KJKL 100524
TAFSME
TAF
KSME 100524Z 1006/1106 29007KT P6SM OVC040
     FM100700 26006KT P6SM BKN045
     FM101400 29005KT P6SM SCT110
     FM101600 25006KT P6SM SCT050 SCT100=

USA.gov is the U.S. government's official web portal to all federal, state and local government web resources and services.